createdAt,value
2019-05-11T00:01:38.026Z,5.00
2019-05-11T00:04:07.562Z,6.22
2019-05-11T00:06:37.326Z,6.30
2019-05-11T00:09:06.173Z,5.28
2019-05-11T00:11:36.897Z,4.87
2019-05-11T00:14:05.995Z,5.78
2019-05-11T00:16:35.475Z,6.03
2019-05-11T00:19:04.248Z,7.53
2019-05-11T00:21:33.750Z,7.03
2019-05-11T00:24:03.331Z,4.12
2019-05-11T00:26:33.608Z,4.37
2019-05-11T00:29:04.834Z,6.25
2019-05-11T00:31:35.544Z,6.40
2019-05-11T00:34:04.165Z,5.65
2019-05-11T00:47:31.291Z,4.75
2019-05-11T00:53:11.409Z,5.12
2019-05-11T00:55:40.439Z,5.45
2019-05-11T01:00:39.720Z,4.37
2019-05-11T01:03:11.824Z,7.10
2019-05-11T01:05:41.308Z,5.33
2019-05-11T01:08:19.592Z,4.78
2019-05-11T01:10:48.713Z,5.78
2019-05-11T01:21:18.963Z,4.37
2019-05-11T01:27:48.502Z,8.58
2019-05-11T01:29:36.319Z,6.20
2019-05-11T01:32:05.598Z,5.05
2019-05-11T01:34:43.197Z,3.60
2019-05-11T01:37:18.733Z,3.90
2019-05-11T01:41:58.993Z,5.33
2019-05-11T01:44:27.823Z,6.15
2019-05-11T01:46:56.869Z,6.90
2019-05-11T01:49:44.206Z,5.55
2019-05-11T01:52:14.551Z,8.13
2019-05-11T01:54:43.717Z,6.10
2019-05-11T01:58:52.003Z,4.20
2019-05-11T01:59:53.827Z,4.87
2019-05-11T02:02:23.212Z,5.08
2019-05-11T02:04:52.019Z,5.47
2019-05-11T02:07:21.530Z,5.73
2019-05-11T02:09:50.267Z,6.42
2019-05-11T02:12:19.441Z,4.97
2019-05-11T02:14:48.092Z,4.85
2019-05-11T02:17:16.807Z,9.35
2019-05-11T02:19:46.946Z,6.20
2019-05-11T02:22:15.734Z,8.63
2019-05-11T02:24:44.832Z,5.67
2019-05-11T02:30:04.258Z,5.97
2019-05-11T02:32:33.590Z,6.90
2019-05-11T02:35:02.724Z,6.15
2019-05-11T02:37:31.580Z,7.17
2019-05-11T02:40:00.885Z,5.70
2019-05-11T02:44:59.849Z,7.83
2019-05-11T02:47:31.693Z,8.53
2019-05-11T02:50:01.278Z,6.35
2019-05-11T02:55:03.027Z,7.12
2019-05-11T02:57:32.477Z,8.55
2019-05-11T03:00:01.674Z,7.65
2019-05-11T03:02:31.102Z,10.13
2019-05-11T03:05:00.134Z,10.43
2019-05-11T03:07:29.680Z,15.63
2019-05-11T03:09:58.745Z,12.93
2019-05-11T03:12:28.123Z,13.63
2019-05-11T03:14:57.483Z,9.93
2019-05-11T03:17:26.691Z,10.88
2019-05-11T03:19:55.706Z,11.80
2019-05-11T03:22:24.701Z,23.22
2019-05-11T03:24:53.546Z,11.28
2019-05-11T03:27:23.563Z,10.88
2019-05-11T03:29:54.601Z,13.22
2019-05-11T03:32:23.832Z,11.10
2019-05-11T03:34:53.218Z,11.85
2019-05-11T03:37:23.009Z,10.93
2019-05-11T03:39:51.848Z,11.97
2019-05-11T03:42:21.446Z,10.90
2019-05-11T03:44:50.354Z,11.33
2019-05-11T03:47:19.360Z,15.48
2019-05-11T03:49:49.486Z,17.12
2019-05-11T03:52:18.785Z,13.88
2019-05-11T03:54:47.993Z,14.13
2019-05-11T03:57:16.979Z,14.03
2019-05-11T03:59:47.972Z,11.80
2019-05-11T04:02:17.146Z,12.30
2019-05-11T04:04:46.445Z,12.45
2019-05-11T04:07:15.606Z,12.28
2019-05-11T04:09:45.181Z,16.53
2019-05-11T04:12:32.955Z,13.68
2019-05-11T04:14:45.000Z,16.10
2019-05-11T04:17:15.145Z,12.88
2019-05-11T04:19:44.140Z,15.30
2019-05-11T04:22:12.972Z,17.02
2019-05-11T04:24:42.059Z,16.17
2019-05-11T04:27:11.344Z,15.78
2019-05-11T04:29:41.120Z,11.95
2019-05-11T04:32:10.929Z,16.62
2019-05-11T04:34:40.964Z,16.37
2019-05-11T04:37:11.565Z,15.48
2019-05-11T04:39:40.467Z,17.25
2019-05-11T04:42:15.966Z,13.83
2019-05-11T04:44:44.603Z,17.10
2019-05-11T04:47:13.492Z,15.58
2019-05-11T04:52:12.417Z,15.45
2019-05-11T04:57:23.603Z,16.07
2019-05-11T04:59:58.136Z,15.65
2019-05-11T05:02:27.410Z,14.55
2019-05-11T05:04:56.319Z,16.17
2019-05-11T05:07:25.064Z,15.80
2019-05-11T05:09:54.989Z,18.57
2019-05-11T05:12:23.926Z,13.83
2019-05-11T05:17:23.258Z,13.28
2019-05-11T05:19:52.571Z,18.90
2019-05-11T05:22:27.882Z,18.40
2019-05-11T05:24:56.679Z,16.07
2019-05-11T05:27:25.739Z,16.35
2019-05-11T05:29:54.925Z,17.00
2019-05-11T05:32:24.133Z,17.75
2019-05-11T05:34:53.377Z,17.23
2019-05-11T05:37:22.907Z,15.93
2019-05-11T05:39:51.918Z,21.45
2019-05-11T05:42:21.085Z,17.80
2019-05-11T05:44:50.129Z,17.82
2019-05-11T05:47:19.329Z,18.00
2019-05-11T05:49:48.541Z,16.77
2019-05-11T05:52:18.050Z,22.50
2019-05-11T05:54:46.965Z,16.43
2019-05-11T06:11:13.769Z,171.55
2019-05-11T06:13:45.631Z,26.42
2019-05-11T06:16:13.169Z,25.32
2019-05-11T06:18:42.481Z,28.73
2019-05-11T06:21:11.455Z,24.85
2019-05-11T06:23:41.054Z,22.95
2019-05-11T06:26:10.667Z,29.10
2019-05-11T06:28:41.025Z,22.90
2019-05-11T06:31:15.592Z,23.42
2019-05-11T06:33:44.920Z,23.70
2019-05-11T06:36:14.397Z,24.45
2019-05-11T06:38:43.643Z,24.60
2019-05-11T06:41:13.464Z,19.48
2019-05-11T06:43:42.817Z,22.62
2019-05-11T06:46:11.762Z,23.22
2019-05-11T06:48:44.243Z,22.03
2019-05-11T06:51:13.635Z,20.32
2019-05-11T06:53:43.237Z,25.30
2019-05-11T06:56:12.647Z,23.80
2019-05-11T06:58:45.384Z,22.27
2019-05-11T07:01:12.478Z,25.10
2019-05-11T07:03:46.891Z,20.88
2019-05-11T07:06:18.666Z,22.87
2019-05-11T07:08:47.790Z,25.75
2019-05-11T07:11:16.949Z,21.12
2019-05-11T07:13:46.363Z,21.80
2019-05-11T07:16:16.859Z,54.97
2019-05-11T07:18:46.508Z,47.13
2019-05-11T07:21:16.210Z,72.42
2019-05-11T07:23:45.572Z,53.58
2019-05-11T07:26:14.519Z,38.25
2019-05-11T07:28:43.731Z,24.02
2019-05-11T07:31:12.885Z,30.37
2019-05-11T07:33:42.124Z,20.30
2019-05-11T07:36:11.502Z,28.73
2019-05-11T07:38:40.606Z,21.17
2019-05-11T07:41:10.731Z,24.23
2019-05-11T07:43:42.314Z,19.40
2019-05-11T07:46:11.683Z,17.95
2019-05-11T07:48:41.502Z,25.23
2019-05-11T07:51:10.787Z,19.27
2019-05-11T07:53:40.228Z,24.03
2019-05-11T07:56:09.819Z,21.52
2019-05-11T07:58:39.068Z,19.05
2019-05-11T08:01:08.786Z,21.20
2019-05-11T08:03:38.851Z,18.50
2019-05-11T08:06:08.892Z,20.80
2019-05-11T08:08:38.622Z,22.35
2019-05-11T08:11:08.272Z,24.27
2019-05-11T08:13:38.835Z,20.92
2019-05-11T08:16:08.421Z,24.57
2019-05-11T08:18:38.768Z,21.00
2019-05-11T08:21:08.826Z,23.85
2019-05-11T08:23:38.265Z,23.90
2019-05-11T08:26:08.404Z,24.25
2019-05-11T08:28:38.183Z,29.20
2019-05-11T08:31:08.147Z,23.10
2019-05-11T08:33:38.914Z,29.87
2019-05-11T08:38:37.958Z,27.00
2019-05-11T08:41:08.053Z,21.82
2019-05-11T08:48:40.740Z,25.62
2019-05-11T08:51:09.825Z,25.48
2019-05-11T08:53:42.583Z,19.02
2019-05-11T08:56:13.333Z,24.45
2019-05-11T08:58:42.734Z,28.23
2019-05-11T09:01:11.978Z,30.88
2019-05-11T09:03:40.806Z,22.93
2019-05-11T09:06:10.398Z,28.62
2019-05-11T09:08:39.321Z,24.50
2019-05-11T09:11:08.570Z,22.40
2019-05-11T09:13:39.415Z,23.73
2019-05-11T09:18:38.703Z,29.90
2019-05-11T09:21:09.009Z,28.75
2019-05-11T09:23:40.804Z,27.17
2019-05-11T09:26:09.349Z,26.60
2019-05-11T09:28:38.559Z,17.13
2019-05-11T09:31:09.651Z,28.77
2019-05-11T09:33:38.880Z,31.85
2019-05-11T09:36:08.517Z,27.07
2019-05-11T09:41:11.540Z,23.47
2019-05-11T09:43:39.028Z,27.90
2019-05-11T09:46:08.461Z,26.60
2019-05-11T09:48:38.015Z,28.17
2019-05-11T09:51:08.026Z,23.60
2019-05-11T09:53:41.856Z,24.65
2019-05-11T09:56:12.002Z,21.52
2019-05-11T09:58:41.203Z,24.77
2019-05-11T10:01:10.434Z,19.43
2019-05-11T10:03:39.599Z,28.92
2019-05-11T10:06:08.828Z,28.27
2019-05-11T10:08:38.239Z,23.25
2019-05-11T10:11:08.493Z,23.65
2019-05-11T10:16:10.521Z,27.32
2019-05-11T10:18:38.702Z,18.57
2019-05-11T10:21:08.226Z,25.12
2019-05-11T10:23:38.273Z,19.17
2019-05-11T10:26:08.107Z,22.15
2019-05-11T10:28:38.903Z,20.25
2019-05-11T10:31:08.713Z,28.85
2019-05-11T10:36:10.007Z,19.35
2019-05-11T10:38:39.019Z,22.37
2019-05-11T10:41:08.931Z,24.52
2019-05-11T10:43:38.362Z,23.00
2019-05-11T10:46:16.923Z,21.70
2019-05-11T10:48:38.854Z,20.45
2019-05-11T10:51:08.374Z,21.85
2019-05-11T10:53:38.408Z,22.20
2019-05-11T10:56:08.724Z,18.67
2019-05-11T10:58:38.377Z,22.20
2019-05-11T11:01:08.850Z,22.95
2019-05-11T11:03:37.926Z,22.05
2019-05-11T11:06:08.518Z,19.63
2019-05-11T11:08:38.406Z,20.23
2019-05-11T11:11:08.138Z,22.82
2019-05-11T11:13:39.840Z,20.72
2019-05-11T11:16:08.493Z,20.97
2019-05-11T11:18:40.683Z,18.48
2019-05-11T11:21:09.343Z,28.98
2019-05-11T11:23:38.585Z,25.20
2019-05-11T11:26:08.352Z,28.57
2019-05-11T11:28:39.548Z,29.65
2019-05-11T11:33:38.221Z,27.00
2019-05-11T11:36:08.662Z,29.02
2019-05-11T11:38:38.260Z,36.75
2019-05-11T11:41:07.669Z,25.35
2019-05-11T11:43:37.753Z,25.80
2019-05-11T11:48:38.584Z,40.80
2019-05-11T11:51:08.293Z,46.88
2019-05-11T11:53:38.304Z,33.85
2019-05-11T11:58:38.206Z,26.65
2019-05-11T12:01:08.119Z,24.67
2019-05-11T12:03:38.079Z,31.70
2019-05-11T12:06:08.730Z,22.17
2019-05-11T12:08:38.913Z,23.15
2019-05-11T12:13:40.256Z,21.42
2019-05-11T12:16:09.276Z,21.30
2019-05-11T12:18:38.574Z,21.80
2019-05-11T12:21:08.139Z,21.60
2019-05-11T12:23:38.104Z,25.05
2019-05-11T12:26:08.475Z,27.45
2019-05-11T12:28:41.335Z,25.90
2019-05-11T12:31:10.058Z,26.65
2019-05-11T12:33:39.512Z,28.12
2019-05-11T12:36:08.726Z,27.07
2019-05-11T12:38:38.415Z,26.77
2019-05-11T12:41:08.803Z,25.23
2019-05-11T12:43:38.335Z,32.03
2019-05-11T12:46:08.048Z,21.57
2019-05-11T12:48:38.097Z,30.08
2019-05-11T12:51:07.998Z,25.43
2019-05-11T12:53:38.510Z,20.08
2019-05-11T12:56:08.804Z,23.38
2019-05-11T12:58:39.585Z,24.60
2019-05-11T13:03:38.594Z,33.20
2019-05-11T13:06:08.150Z,33.13
2019-05-11T13:08:38.892Z,28.38
2019-05-11T13:11:09.524Z,27.87
2019-05-11T13:13:38.747Z,25.43
2019-05-11T13:16:08.706Z,26.83
2019-05-11T13:18:38.413Z,21.10
2019-05-11T13:21:07.852Z,21.65
2019-05-11T13:23:38.809Z,22.73
2019-05-11T13:26:08.708Z,23.30
2019-05-11T13:28:38.325Z,21.75
2019-05-11T13:31:08.238Z,25.10
2019-05-11T13:36:10.340Z,25.75
2019-05-11T13:38:41.681Z,21.57
2019-05-11T13:41:13.365Z,23.47
2019-05-11T13:43:44.250Z,21.15
2019-05-11T13:48:57.907Z,20.85
2019-05-11T13:51:28.547Z,26.85
2019-05-11T13:53:58.474Z,20.12
2019-05-11T13:56:28.493Z,19.02
2019-05-11T13:59:04.065Z,20.68
2019-05-11T14:01:33.172Z,23.60
2019-05-11T14:04:02.875Z,23.07
2019-05-11T14:06:37.935Z,23.73
2019-05-11T14:09:09.500Z,25.62
2019-05-11T14:11:40.969Z,19.73
2019-05-11T14:14:09.440Z,21.77
2019-05-11T14:16:38.737Z,24.85
2019-05-11T14:21:38.881Z,25.02
2019-05-11T14:24:08.055Z,19.17
2019-05-11T14:26:39.980Z,26.97
2019-05-11T14:29:10.170Z,23.45
2019-05-11T14:31:39.466Z,25.35
2019-05-11T14:32:21.371Z,20.40
2019-05-11T14:34:09.080Z,23.40
2019-05-11T14:36:39.512Z,22.20
2019-05-11T14:41:39.318Z,20.02
2019-05-11T14:44:08.950Z,23.22
2019-05-11T14:46:38.506Z,16.65
2019-05-11T14:49:10.334Z,21.90
2019-05-11T14:51:39.341Z,23.87
2019-05-11T14:54:11.541Z,17.82
2019-05-11T14:56:40.742Z,19.30
2019-05-11T14:59:10.158Z,19.60
2019-05-11T15:01:39.478Z,14.78
2019-05-11T15:04:10.037Z,20.40
2019-05-11T15:06:39.178Z,17.70
2019-05-11T15:09:08.159Z,18.73
2019-05-11T15:11:38.887Z,18.02
2019-05-11T15:14:08.362Z,16.77
2019-05-11T15:16:38.353Z,18.07
2019-05-11T15:19:08.226Z,18.37
2019-05-11T15:21:38.693Z,16.95
2019-05-11T15:26:38.229Z,22.00
2019-05-11T15:29:08.990Z,20.70
2019-05-11T15:31:38.273Z,18.07
2019-05-11T15:34:08.626Z,19.90
2019-05-11T15:36:38.856Z,17.42
2019-05-11T15:39:07.940Z,15.65
2019-05-11T15:41:38.846Z,18.80
2019-05-11T15:44:11.672Z,20.72
2019-05-11T15:47:24.037Z,20.65
2019-05-11T15:49:53.520Z,17.85
2019-05-11T15:52:23.059Z,18.53
2019-05-11T15:54:53.566Z,20.72
2019-05-11T15:57:22.646Z,23.02
2019-05-11T15:59:54.960Z,6.67
2019-05-11T16:02:24.120Z,6.58
2019-05-11T16:04:53.259Z,6.90
2019-05-11T16:07:22.849Z,5.90
2019-05-11T16:09:51.889Z,6.85
2019-05-11T16:12:21.684Z,5.03
2019-05-11T16:14:51.060Z,5.40
2019-05-11T16:17:20.237Z,5.28
2019-05-11T16:19:50.915Z,6.75
2019-05-11T16:22:21.202Z,4.78
2019-05-11T16:24:53.182Z,6.92
2019-05-11T16:27:22.652Z,6.10
2019-05-11T16:29:52.432Z,6.03
2019-05-11T16:32:22.751Z,4.75
2019-05-11T16:35:00.474Z,5.85
2019-05-11T16:37:28.992Z,6.00
2019-05-11T16:39:58.656Z,8.48
2019-05-11T16:42:30.621Z,6.97
2019-05-11T16:44:58.872Z,7.25
2019-05-11T16:47:28.629Z,4.37
2019-05-11T16:49:58.064Z,5.75
2019-05-11T16:52:28.121Z,4.83
2019-05-11T16:54:58.375Z,8.40
2019-05-11T16:57:27.844Z,6.37
2019-05-11T16:59:58.481Z,4.05
2019-05-11T17:02:30.450Z,6.17
2019-05-11T17:07:29.873Z,4.40
2019-05-11T17:12:29.757Z,5.03
2019-05-11T17:14:59.189Z,5.47
2019-05-11T17:17:28.487Z,4.95
2019-05-11T17:19:58.899Z,5.47
2019-05-11T17:22:28.359Z,4.83
2019-05-11T17:24:58.961Z,4.78
2019-05-11T17:29:59.280Z,6.95
2019-05-11T17:32:29.359Z,4.60
2019-05-11T17:34:59.598Z,6.87
2019-05-11T17:37:28.762Z,7.40
2019-05-11T17:40:01.606Z,5.50
2019-05-11T17:42:30.956Z,4.97
2019-05-11T17:45:00.490Z,5.78
2019-05-11T17:47:29.717Z,5.60
2019-05-11T17:50:03.963Z,5.95
2019-05-11T17:52:38.293Z,4.70
2019-05-11T17:55:06.638Z,4.15
2019-05-11T17:57:35.491Z,6.15
2019-05-11T18:00:04.633Z,6.40
2019-05-11T18:02:35.276Z,3.47
2019-05-11T18:05:04.496Z,6.05
2019-05-11T18:09:58.663Z,3.95
2019-05-11T18:12:34.329Z,4.65
2019-05-11T18:15:03.670Z,6.53
2019-05-11T18:17:36.520Z,6.15
2019-05-11T18:20:14.683Z,4.92
2019-05-11T18:22:39.357Z,4.20
2019-05-11T18:25:08.989Z,6.83
2019-05-11T18:27:38.829Z,5.70
2019-05-11T18:30:09.175Z,5.03
2019-05-11T18:32:39.665Z,6.67
2019-05-11T18:37:41.026Z,4.62
2019-05-11T18:40:10.357Z,4.97
2019-05-11T18:42:39.477Z,5.17
2019-05-11T18:45:09.023Z,5.47
2019-05-11T18:47:38.493Z,4.47
2019-05-11T18:50:07.983Z,5.90
2019-05-11T18:52:40.658Z,6.17
2019-05-11T18:55:12.223Z,4.67
2019-05-11T18:57:42.986Z,4.37
2019-05-11T19:00:12.555Z,7.25
2019-05-11T19:02:41.973Z,3.67
2019-05-11T19:05:11.003Z,4.95
2019-05-11T19:07:40.154Z,2.85
2019-05-11T19:10:09.251Z,5.25
2019-05-11T19:12:38.872Z,5.33
2019-05-11T19:15:12.268Z,4.30
2019-05-11T19:17:41.966Z,4.30
2019-05-11T19:20:11.188Z,5.78
2019-05-11T19:22:40.790Z,5.33
2019-05-11T19:25:10.299Z,3.95
2019-05-11T19:27:39.600Z,4.55
2019-05-11T19:30:12.102Z,4.47
2019-05-11T19:32:41.567Z,3.87
2019-05-11T19:35:10.667Z,5.90
2019-05-11T19:37:40.176Z,4.90
2019-05-11T19:40:22.087Z,4.22
2019-05-11T19:42:53.649Z,5.12
2019-05-11T19:45:22.932Z,5.12
2019-05-11T19:47:52.389Z,4.95
2019-05-11T19:50:22.375Z,5.67
2019-05-11T19:52:51.407Z,6.33
2019-05-11T19:55:20.693Z,5.50
2019-05-11T19:57:50.261Z,8.15
2019-05-11T20:00:21.675Z,5.35
2019-05-11T20:02:51.199Z,5.12
2019-05-11T20:05:20.218Z,4.15
2019-05-11T20:07:49.478Z,3.60
2019-05-11T20:10:19.284Z,5.05
2019-05-11T20:12:48.950Z,5.92
2019-05-11T20:15:19.090Z,4.85
2019-05-11T20:17:49.086Z,6.90
2019-05-11T20:20:18.924Z,5.07
2019-05-11T20:22:48.606Z,5.70
2019-05-11T20:25:18.911Z,5.80
2019-05-11T20:27:48.941Z,5.55
2019-05-11T20:30:18.982Z,5.17
2019-05-11T20:32:49.150Z,5.37
2019-05-11T20:35:18.598Z,6.60
2019-05-11T20:37:48.505Z,5.35
2019-05-11T20:40:18.497Z,8.13
2019-05-11T20:42:51.501Z,5.42
2019-05-11T20:45:20.909Z,5.85
2019-05-11T20:47:50.321Z,6.50
2019-05-11T20:50:20.246Z,5.78
2019-05-11T20:52:49.640Z,5.78
2019-05-11T20:55:19.351Z,8.43
2019-05-11T20:57:48.719Z,7.33
2019-05-11T21:00:21.129Z,6.53
2019-05-11T21:02:50.526Z,6.30
2019-05-11T21:05:20.038Z,5.78
2019-05-11T21:07:49.285Z,5.95
2019-05-11T21:10:21.927Z,6.20
2019-05-11T21:12:51.327Z,6.80
2019-05-11T21:15:21.102Z,5.85
2019-05-11T21:17:50.944Z,5.03
2019-05-11T21:20:20.444Z,5.60
2019-05-11T21:22:49.646Z,4.73
2019-05-11T21:25:25.093Z,7.28
2019-05-11T21:27:54.096Z,5.50
2019-05-11T21:30:23.731Z,7.30
2019-05-11T21:32:53.239Z,5.22
2019-05-11T21:35:22.465Z,8.50
2019-05-11T21:37:51.602Z,5.08
2019-05-11T21:40:20.405Z,6.08
2019-05-11T21:42:49.911Z,6.50
2019-05-11T21:45:19.712Z,4.22
2019-05-11T21:47:49.253Z,5.50
2019-05-11T21:50:21.997Z,5.95
2019-05-11T21:52:54.243Z,6.10
2019-05-11T21:55:23.476Z,5.35
2019-05-11T21:57:52.885Z,5.67
2019-05-11T22:00:22.280Z,9.03
2019-05-11T22:05:21.904Z,5.40
2019-05-11T22:07:54.906Z,5.47
2019-05-11T22:10:24.201Z,4.12
2019-05-11T22:12:53.185Z,7.90
2019-05-11T22:15:23.011Z,6.87
2019-05-11T22:17:58.582Z,22.10
2019-05-11T22:20:28.763Z,21.73
2019-05-11T22:25:28.772Z,21.52
2019-05-11T22:27:58.714Z,16.17
2019-05-11T22:30:28.343Z,17.50
2019-05-11T22:32:58.463Z,20.80
2019-05-11T22:35:28.706Z,18.55
2019-05-11T22:37:58.349Z,19.65
2019-05-11T22:40:28.228Z,19.60
2019-05-11T22:43:01.147Z,18.90
2019-05-11T22:45:29.266Z,26.57
2019-05-11T22:47:58.755Z,21.60
